Time;durP1;ratioP1;P1;durP2;ratioP2;P2;SDS_P1;SDS_P2;PMS_P1;PMS_P2;Temp;Humidity;BMP_temperature;BMP_pressure;BME280_temperature;BME280_humidity;BME280_pressure;Samples;Min_cycle;Max_cycle;Signal;HPM_P1;HPM_P2
2021/12/26 00:01:21;;;;;;;6.95;2.95;;;-3.90;99.90;;;;;;5097652;28;20046;-75
2021/12/26 00:03:47;;;;;;;4.60;3.00;;;-3.90;99.90;;;;;;5097300;28;20517;-75
2021/12/26 00:06:16;;;;;;;5.20;2.80;;;-3.90;99.90;;;;;;5096413;28;20024;-75
2021/12/26 00:08:44;;;;;;;5.47;2.70;;;-3.90;99.90;;;;;;5095889;28;20107;-74
2021/12/26 00:11:10;;;;;;;5.13;2.75;;;-3.90;99.90;;;;;;5096391;28;20016;-75
2021/12/26 00:13:36;;;;;;;6.88;3.13;;;-3.80;99.90;;;;;;5078480;28;20046;-75
2021/12/26 00:16:03;;;;;;;4.43;2.60;;;-3.90;99.90;;;;;;5097156;28;20431;-75
2021/12/26 00:18:31;;;;;;;4.78;2.88;;;-3.80;99.90;;;;;;5095874;28;20066;-75
2021/12/26 00:20:56;;;;;;;7.07;3.38;;;-3.80;99.90;;;;;;5097309;28;20046;-75
2021/12/26 00:23:22;;;;;;;4.72;3.00;;;-3.90;99.90;;;;;;5095501;28;20023;-75
2021/12/26 00:25:48;;;;;;;4.40;2.85;;;-3.90;99.90;;;;;;5096961;28;20020;-75
2021/12/26 00:28:14;;;;;;;8.90;3.40;;;-4.00;99.90;;;;;;5096925;28;20101;-75
2021/12/26 00:30:41;;;;;;;5.32;3.22;;;-3.90;99.90;;;;;;5095696;28;20031;-75
2021/12/26 00:33:07;;;;;;;3.88;2.60;;;-3.90;99.90;;;;;;5078294;28;20365;-75
2021/12/26 00:35:33;;;;;;;6.43;3.20;;;-4.00;99.90;;;;;;5097088;28;20016;-74
2021/12/26 00:37:58;;;;;;;5.13;2.85;;;-4.00;99.90;;;;;;5095613;28;20107;-74
2021/12/26 00:40:26;;;;;;;4.68;3.25;;;-4.00;99.90;;;;;;5095804;28;20104;-75
2021/12/26 00:42:53;;;;;;;7.25;3.35;;;-3.90;99.90;;;;;;5095090;28;20023;-75
2021/12/26 00:45:19;;;;;;;4.72;2.58;;;-3.90;99.90;;;;;;5096651;28;20078;-75
2021/12/26 00:47:46;;;;;;;6.47;2.63;;;-3.90;99.90;;;;;;5094971;28;20032;-75
2021/12/26 00:50:14;;;;;;;4.43;2.75;;;-3.90;99.90;;;;;;5096769;28;20031;-75
2021/12/26 00:52:40;;;;;;;7.75;3.67;;;-3.80;99.90;;;;;;5097029;28;20043;-75
2021/12/26 00:55:09;;;;;;;4.90;3.00;;;-3.80;99.90;;;;;;5095409;28;20441;-74
2021/12/26 00:57:36;;;;;;;5.07;2.38;;;-3.80;99.90;;;;;;5094813;28;20077;-75
2021/12/26 01:00:05;;;;;;;4.75;2.55;;;-3.90;99.90;;;;;;5094767;28;20016;-75
2021/12/26 01:02:31;;;;;;;5.93;3.08;;;-3.90;99.90;;;;;;5095394;28;20016;-75
2021/12/26 01:04:56;;;;;;;3.67;2.35;;;-3.90;99.90;;;;;;5095049;28;20031;-75
2021/12/26 01:07:38;;;;;;;7.20;3.30;;;-4.00;99.90;;;;;;5077752;28;20105;-74
2021/12/26 01:10:05;;;;;;;5.00;2.95;;;-4.00;99.90;;;;;;5095143;28;20020;-75
2021/12/26 01:12:31;;;;;;;7.22;2.60;;;-4.00;99.90;;;;;;5077685;28;20032;-74
2021/12/26 01:15:03;;;;;;;5.32;2.67;;;-4.00;99.90;;;;;;5095527;28;20036;-75
2021/12/26 01:17:29;;;;;;;5.47;3.00;;;-4.00;99.90;;;;;;5096300;28;20020;-75
2021/12/26 01:19:55;;;;;;;4.40;3.00;;;-3.90;99.90;;;;;;5077756;28;20024;-75
2021/12/26 01:22:23;;;;;;;6.28;3.20;;;-3.90;99.90;;;;;;5094970;28;20017;-75
2021/12/26 01:24:55;;;;;;;3.80;2.67;;;-3.90;99.90;;;;;;5094636;28;20032;-75
2021/12/26 01:27:22;;;;;;;5.20;2.88;;;-3.90;99.90;;;;;;5095784;28;20044;-75
2021/12/26 01:29:48;;;;;;;5.70;2.88;;;-4.00;99.90;;;;;;5077555;28;20060;-75
2021/12/26 01:32:14;;;;;;;4.35;2.80;;;-4.00;99.90;;;;;;5095432;28;20019;-75
2021/12/26 01:34:39;;;;;;;5.65;2.85;;;-4.00;99.90;;;;;;5094657;28;20024;-75
2021/12/26 01:37:05;;;;;;;4.50;2.60;;;-4.10;99.90;;;;;;5094006;28;20481;-75
2021/12/26 01:39:30;;;;;;;4.60;2.65;;;-4.10;99.90;;;;;;5077136;28;20110;-75
2021/12/26 01:42:01;;;;;;;5.07;2.80;;;-4.00;99.90;;;;;;5095492;28;20024;-75
2021/12/26 01:44:27;;;;;;;4.80;2.47;;;-4.00;99.90;;;;;;5077799;28;20016;-75
2021/12/26 01:46:53;;;;;;;5.80;2.28;;;-3.90;99.90;;;;;;5095381;28;20031;-75
2021/12/26 01:49:23;;;;;;;5.68;2.92;;;-3.90;99.90;;;;;;5095570;28;20020;-75
2021/12/26 01:51:52;;;;;;;7.88;2.88;;;-3.90;99.90;;;;;;5094124;28;20020;-75
2021/12/26 01:54:32;;;;;;;4.93;2.78;;;-4.00;99.90;;;;;;5095441;28;20361;-75
2021/12/26 01:57:01;;;;;;;5.75;2.85;;;-4.00;99.90;;;;;;5094171;28;20398;-75
2021/12/26 01:59:28;;;;;;;4.30;2.58;;;-4.00;99.90;;;;;;5093597;28;20023;-75
2021/12/26 02:01:56;;;;;;;6.22;3.30;;;-4.00;99.90;;;;;;5093919;28;20016;-75
2021/12/26 02:04:26;;;;;;;5.55;2.90;;;-4.00;99.90;;;;;;5093585;28;20481;-75
2021/12/26 02:06:51;;;;;;;3.95;2.60;;;-4.00;99.90;;;;;;5095009;28;20028;-74
2021/12/26 02:09:17;;;;;;;4.85;2.60;;;-4.00;99.90;;;;;;5093439;28;20114;-75
2021/12/26 02:11:42;;;;;;;5.68;2.90;;;-4.00;99.90;;;;;;5093398;28;20069;-75
2021/12/26 02:14:08;;;;;;;6.53;2.90;;;-4.00;99.90;;;;;;5076192;28;20098;-75
2021/12/26 02:16:34;;;;;;;7.38;3.03;;;-4.00;99.90;;;;;;5095089;28;20016;-74
2021/12/26 02:19:00;;;;;;;4.90;2.63;;;-4.00;99.90;;;;;;5077374;28;20081;-74
2021/12/26 02:21:52;;;;;;;6.15;3.10;;;-4.00;99.90;;;;;;5093320;28;20464;-75
2021/12/26 02:24:20;;;;;;;6.13;3.10;;;-4.00;99.90;;;;;;5094339;28;20106;-75
2021/12/26 02:29:31;;;;;;;4.43;2.92;;;-4.10;99.90;;;;;;5093128;28;20026;-75
2021/12/26 02:31:56;;;;;;;5.82;3.10;;;-4.10;99.90;;;;;;5093302;28;20111;-75
2021/12/26 02:34:22;;;;;;;4.82;3.00;;;-4.00;99.90;;;;;;5094792;28;20028;-75
2021/12/26 02:36:48;;;;;;;4.45;2.75;;;-4.10;99.90;;;;;;5093581;28;20013;-75
2021/12/26 02:39:15;;;;;;;5.63;3.30;;;-4.00;99.90;;;;;;5093310;28;20446;-75
2021/12/26 02:41:41;;;;;;;8.93;2.92;;;-4.10;99.90;;;;;;5094668;28;20016;-75
2021/12/26 02:44:07;;;;;;;5.18;2.75;;;-4.10;99.90;;;;;;5092825;28;20373;-75
2021/12/26 02:46:33;;;;;;;5.68;2.80;;;-4.10;99.90;;;;;;5092806;28;20016;-75
2021/12/26 02:48:59;;;;;;;3.42;2.30;;;-4.10;99.90;;;;;;5093027;28;20044;-74
2021/12/26 02:51:24;;;;;;;5.60;3.35;;;-4.10;99.90;;;;;;5092684;28;20027;-75
2021/12/26 02:53:50;;;;;;;5.47;3.35;;;-4.00;99.90;;;;;;5094353;28;20031;-74
2021/12/26 02:56:16;;;;;;;6.63;3.28;;;-4.00;99.90;;;;;;5093919;28;20020;-75
2021/12/26 02:58:42;;;;;;;4.95;2.85;;;-4.00;99.90;;;;;;5094457;28;20096;-75
2021/12/26 03:01:11;;;;;;;5.07;3.05;;;-4.10;99.90;;;;;;5094398;28;20044;-75
2021/12/26 03:03:38;;;;;;;5.13;2.75;;;-4.10;99.90;;;;;;5076274;28;20059;-74
2021/12/26 03:06:14;;;;;;;5.50;3.13;;;-4.10;99.90;;;;;;5092893;28;20023;-75
2021/12/26 03:08:41;;;;;;;7.70;3.28;;;-4.10;99.90;;;;;;5092810;28;20019;-75
2021/12/26 03:11:07;;;;;;;6.22;3.42;;;-4.10;99.90;;;;;;5094297;28;20044;-75
2021/12/26 03:13:33;;;;;;;6.28;3.25;;;-4.10;99.90;;;;;;5093609;28;20385;-75
2021/12/26 03:15:59;;;;;;;4.25;2.80;;;-4.20;99.90;;;;;;5092797;28;20012;-75
2021/12/26 03:18:24;;;;;;;7.30;3.30;;;-4.10;99.90;;;;;;5076474;28;20012;-75
2021/12/26 03:20:51;;;;;;;3.97;2.90;;;-4.10;99.90;;;;;;5092741;28;20026;-74
2021/12/26 03:23:19;;;;;;;5.28;3.40;;;-4.10;99.90;;;;;;5092715;28;20024;-74
2021/12/26 03:25:45;;;;;;;6.25;3.50;;;-4.10;99.90;;;;;;5092307;28;20020;-74
2021/12/26 03:28:11;;;;;;;5.13;2.72;;;-4.10;99.90;;;;;;5093563;28;20058;-75
2021/12/26 03:30:38;;;;;;;4.78;2.78;;;-4.20;99.90;;;;;;5092811;28;20016;-75
2021/12/26 03:33:06;;;;;;;6.95;3.00;;;-4.20;99.90;;;;;;5075364;28;20020;-75
2021/12/26 03:35:33;;;;;;;4.82;3.03;;;-4.30;99.90;;;;;;5094061;28;20442;-75
2021/12/26 03:38:00;;;;;;;7.25;3.40;;;-4.30;99.90;;;;;;5092598;28;20403;-75
2021/12/26 03:40:26;;;;;;;7.28;3.38;;;-4.20;99.90;;;;;;5075520;28;20102;-75
2021/12/26 03:42:53;;;;;;;8.13;3.42;;;-4.20;99.90;;;;;;5092159;28;20165;-75
2021/12/26 03:45:20;;;;;;;3.97;2.50;;;-4.20;99.90;;;;;;5093410;28;20464;-75
2021/12/26 03:47:49;;;;;;;7.35;3.35;;;-4.30;99.90;;;;;;5093912;28;20472;-74
2021/12/26 03:50:15;;;;;;;5.35;3.15;;;-4.20;99.90;;;;;;5092476;28;20481;-75
2021/12/26 03:52:41;;;;;;;4.50;2.72;;;-4.20;99.90;;;;;;5093900;28;20020;-75
2021/12/26 03:55:07;;;;;;;5.53;3.63;;;-4.20;99.90;;;;;;5092355;28;20034;-75
2021/12/26 03:57:32;;;;;;;6.00;3.17;;;-4.20;99.90;;;;;;5093839;28;20024;-75
2021/12/26 03:59:58;;;;;;;4.38;2.78;;;-4.10;99.90;;;;;;5093808;28;20024;-75
2021/12/26 04:02:23;;;;;;;5.18;3.00;;;-4.10;99.90;;;;;;5092891;28;20058;-75
2021/12/26 04:04:49;;;;;;;6.47;3.25;;;-4.00;99.90;;;;;;5091988;28;20024;-74
2021/12/26 04:07:14;;;;;;;9.75;3.50;;;-4.00;99.90;;;;;;5091977;28;20496;-75
2021/12/26 04:09:40;;;;;;;5.25;3.22;;;-4.00;99.90;;;;;;5091936;28;20024;-75
2021/12/26 04:12:06;;;;;;;6.15;3.65;;;-4.00;99.90;;;;;;5091999;28;20020;-75
2021/12/26 04:14:32;;;;;;;4.57;3.20;;;-4.00;99.90;;;;;;5075076;28;20090;-75
2021/12/26 04:16:57;;;;;;;6.03;3.60;;;-4.00;99.90;;;;;;5075103;28;20036;-75
2021/12/26 04:19:23;;;;;;;5.72;2.80;;;-4.00;99.90;;;;;;5092210;28;20054;-75
2021/12/26 04:21:48;;;;;;;5.28;3.33;;;-4.00;99.90;;;;;;5095145;28;20032;-75
2021/12/26 04:24:14;;;;;;;5.10;3.25;;;-4.00;99.90;;;;;;5095881;28;20027;-75
2021/12/26 04:26:40;;;;;;;4.95;3.13;;;-3.90;99.90;;;;;;5097035;28;20027;-75
2021/12/26 04:29:07;;;;;;;5.80;3.08;;;-4.00;99.90;;;;;;5097237;28;20030;-75
2021/12/26 04:31:33;;;;;;;5.85;3.55;;;-3.90;99.90;;;;;;5096654;28;20024;-75
2021/12/26 04:33:59;;;;;;;5.43;2.92;;;-3.90;99.90;;;;;;5096497;28;20457;-75
2021/12/26 04:36:24;;;;;;;5.25;3.00;;;-3.90;99.90;;;;;;5096801;28;20012;-75
2021/12/26 04:38:50;;;;;;;6.45;3.70;;;-3.90;99.90;;;;;;5095572;28;20514;-74
2021/12/26 04:41:16;;;;;;;5.78;3.40;;;-3.90;99.90;;;;;;5095837;28;20051;-75
2021/12/26 04:43:41;;;;;;;4.53;3.08;;;-3.90;99.90;;;;;;5096639;28;20484;-75
2021/12/26 04:46:08;;;;;;;4.93;3.15;;;-3.90;99.90;;;;;;5095422;28;20119;-75
2021/12/26 04:48:37;;;;;;;6.22;3.50;;;-3.90;99.90;;;;;;5095688;28;20505;-76
2021/12/26 04:51:05;;;;;;;6.50;3.08;;;-3.80;99.90;;;;;;5095322;28;20036;-75
2021/12/26 04:53:32;;;;;;;5.78;3.40;;;-3.80;99.90;;;;;;5096372;28;20494;-75
2021/12/26 04:55:58;;;;;;;4.13;3.10;;;-3.80;99.90;;;;;;5095681;28;20434;-75
2021/12/26 04:58:24;;;;;;;6.50;3.55;;;-3.80;99.90;;;;;;5094854;28;20046;-76
2021/12/26 05:00:50;;;;;;;6.07;3.17;;;-3.70;99.90;;;;;;5077951;28;20012;-75
2021/12/26 05:03:15;;;;;;;7.03;3.35;;;-3.70;99.90;;;;;;5096299;28;20107;-75
2021/12/26 05:05:43;;;;;;;10.73;3.38;;;-3.60;99.90;;;;;;5095252;28;20361;-74
2021/12/26 05:08:09;;;;;;;7.43;3.20;;;-3.60;99.90;;;;;;5095907;28;20361;-75
2021/12/26 05:10:34;;;;;;;5.97;2.85;;;-3.50;99.90;;;;;;5077804;28;20031;-75
2021/12/26 05:13:02;;;;;;;7.20;3.17;;;-3.50;99.90;;;;;;5096134;28;20488;-76
2021/12/26 05:15:27;;;;;;;5.70;3.47;;;-3.50;99.90;;;;;;5078545;28;20020;-75
2021/12/26 05:17:54;;;;;;;7.22;3.67;;;-3.40;99.90;;;;;;5094808;28;20366;-75
2021/12/26 05:20:21;;;;;;;6.40;3.47;;;-3.40;99.90;;;;;;5096217;28;20069;-76
2021/12/26 05:22:49;;;;;;;6.55;3.65;;;-3.40;99.90;;;;;;5094746;28;20106;-75
2021/12/26 05:25:15;;;;;;;5.68;3.28;;;-3.40;99.90;;;;;;5096088;28;20031;-75
2021/12/26 05:27:41;;;;;;;5.47;3.55;;;-3.40;99.90;;;;;;5096078;28;20395;-75
2021/12/26 05:30:11;;;;;;;5.60;3.45;;;-3.40;99.90;;;;;;5095465;28;20073;-75
2021/12/26 05:32:37;;;;;;;7.35;4.00;;;-3.40;99.90;;;;;;5095949;28;20077;-75
2021/12/26 05:35:03;;;;;;;6.68;3.65;;;-3.40;99.90;;;;;;5095545;28;20103;-74
2021/12/26 05:37:29;;;;;;;5.53;3.17;;;-3.40;99.90;;;;;;5094058;28;20020;-75
2021/12/26 05:39:56;;;;;;;7.55;3.33;;;-3.40;99.90;;;;;;5095609;28;20139;-75
2021/12/26 05:42:22;;;;;;;7.40;3.45;;;-3.40;99.90;;;;;;5095820;28;20069;-75
2021/12/26 05:44:48;;;;;;;8.80;3.92;;;-3.40;99.90;;;;;;5094288;28;20415;-74
2021/12/26 05:47:14;;;;;;;6.38;3.63;;;-3.40;99.90;;;;;;5094259;28;20599;-75
2021/12/26 05:49:40;;;;;;;8.40;4.03;;;-3.40;99.90;;;;;;5095371;28;20046;-75
2021/12/26 05:52:06;;;;;;;6.22;3.30;;;-3.40;99.90;;;;;;5095574;28;20446;-74
2021/12/26 05:54:32;;;;;;;5.65;3.72;;;-3.40;99.90;;;;;;5095218;28;20028;-75
2021/12/26 05:56:58;;;;;;;6.75;4.00;;;-3.30;99.90;;;;;;5094053;28;20020;-75
2021/12/26 05:59:24;;;;;;;6.65;3.88;;;-3.30;99.90;;;;;;5094333;28;20047;-75
2021/12/26 06:01:49;;;;;;;10.18;4.68;;;-3.30;99.90;;;;;;5094425;28;20020;-75
2021/12/26 06:04:15;;;;;;;10.18;4.63;;;-3.30;99.90;;;;;;5095387;28;20364;-74
2021/12/26 06:06:40;;;;;;;6.70;3.85;;;-3.30;99.90;;;;;;5095313;28;20016;-75
2021/12/26 06:09:06;;;;;;;6.75;3.70;;;-3.30;99.90;;;;;;5094128;28;20019;-74
2021/12/26 06:11:32;;;;;;;7.95;4.25;;;-3.30;99.90;;;;;;5095263;28;20024;-75
2021/12/26 06:13:58;;;;;;;7.20;4.22;;;-3.20;99.90;;;;;;5093337;28;20036;-74
2021/12/26 06:16:23;;;;;;;10.45;4.13;;;-3.20;99.90;;;;;;5095143;28;20078;-74
2021/12/26 06:18:49;;;;;;;6.80;4.13;;;-3.20;99.90;;;;;;5093444;28;20073;-75
2021/12/26 06:21:14;;;;;;;7.78;4.70;;;-3.20;99.90;;;;;;5094521;28;20024;-74
2021/12/26 06:23:40;;;;;;;9.38;4.60;;;-3.20;99.90;;;;;;5094728;28;20066;-75
2021/12/26 06:26:05;;;;;;;9.18;4.63;;;-3.20;99.90;;;;;;5093811;28;20361;-75
2021/12/26 06:28:31;;;;;;;7.80;4.60;;;-3.20;99.90;;;;;;5093223;28;20411;-75
2021/12/26 06:30:56;;;;;;;8.25;4.75;;;-3.20;99.90;;;;;;5094871;28;20024;-75
2021/12/26 06:33:22;;;;;;;9.00;4.65;;;-3.20;99.90;;;;;;5093043;28;20031;-76
2021/12/26 06:35:49;;;;;;;10.10;4.65;;;-3.20;99.90;;;;;;5094806;28;20024;-75
2021/12/26 06:38:16;;;;;;;7.75;4.70;;;-3.30;99.90;;;;;;5092930;28;20418;-74
2021/12/26 06:40:41;;;;;;;8.95;4.80;;;-3.20;99.90;;;;;;5076072;28;20016;-74
2021/12/26 06:43:08;;;;;;;7.90;4.60;;;-3.30;99.90;;;;;;5092816;28;20043;-74
2021/12/26 06:45:33;;;;;;;8.88;5.07;;;-3.20;99.90;;;;;;5092861;28;20043;-75
2021/12/26 06:48:02;;;;;;;11.23;5.07;;;-3.20;99.90;;;;;;5092910;28;20088;-75
2021/12/26 06:50:28;;;;;;;10.32;5.28;;;-3.20;99.90;;;;;;5076243;28;20107;-75
2021/12/26 06:52:54;;;;;;;10.35;5.30;;;-3.20;99.90;;;;;;5093389;28;20024;-75
2021/12/26 06:55:20;;;;;;;8.95;4.63;;;-3.20;99.90;;;;;;5094158;28;20380;-74
2021/12/26 06:57:46;;;;;;;8.38;4.88;;;-3.20;99.90;;;;;;5092658;28;20103;-74
2021/12/26 07:00:14;;;;;;;8.88;5.45;;;-3.10;99.90;;;;;;5092618;28;20454;-75
2021/12/26 07:02:40;;;;;;;8.63;4.90;;;-3.10;99.90;;;;;;5093257;28;20087;-75
2021/12/26 07:05:06;;;;;;;11.38;5.63;;;-3.10;99.90;;;;;;5093870;28;20077;-75
2021/12/26 07:07:31;;;;;;;11.15;5.38;;;-3.10;99.90;;;;;;5092645;28;20020;-75
2021/12/26 07:09:57;;;;;;;9.43;5.53;;;-3.00;99.90;;;;;;5092876;28;20407;-75
2021/12/26 07:12:22;;;;;;;10.02;5.65;;;-3.00;99.90;;;;;;5092872;28;20027;-75
2021/12/26 07:14:48;;;;;;;11.25;5.78;;;-3.00;99.90;;;;;;5092322;28;20040;-75
2021/12/26 07:17:13;;;;;;;10.48;5.80;;;-3.00;99.90;;;;;;5075603;28;20012;-75
2021/12/26 07:19:39;;;;;;;10.43;6.18;;;-3.00;99.90;;;;;;5092380;28;20045;-75
2021/12/26 07:22:07;;;;;;;10.75;5.70;;;-3.00;99.90;;;;;;5094210;28;20060;-76
2021/12/26 07:24:33;;;;;;;11.95;5.35;;;-3.00;99.90;;;;;;5075896;28;20031;-75
2021/12/26 07:26:58;;;;;;;11.02;5.85;;;-2.90;99.90;;;;;;5075546;28;20469;-75
2021/12/26 07:29:24;;;;;;;9.07;5.18;;;-2.90;99.90;;;;;;5092407;28;20042;-75
2021/12/26 07:31:49;;;;;;;10.32;5.65;;;-2.90;99.90;;;;;;5075408;28;20020;-75
2021/12/26 07:34:15;;;;;;;11.57;6.10;;;-2.90;99.90;;;;;;5094032;28;20038;-75
2021/12/26 07:36:40;;;;;;;12.23;6.50;;;-2.90;99.90;;;;;;5075451;28;20018;-75
2021/12/26 07:39:06;;;;;;;12.07;6.50;;;-2.80;99.90;;;;;;5075953;28;20107;-75
2021/12/26 07:41:32;;;;;;;9.93;5.55;;;-2.90;99.90;;;;;;5075657;28;20073;-75
2021/12/26 07:43:58;;;;;;;14.30;7.05;;;-2.80;99.90;;;;;;5075409;28;20020;-75
2021/12/26 07:46:24;;;;;;;14.18;6.28;;;-2.80;99.90;;;;;;5092225;28;20024;-75
2021/12/26 07:48:50;;;;;;;14.38;6.40;;;-2.80;99.90;;;;;;5092495;28;20016;-75
2021/12/26 07:51:18;;;;;;;12.38;6.22;;;-2.80;99.90;;;;;;5092533;28;20106;-74
2021/12/26 07:53:43;;;;;;;11.15;6.18;;;-2.80;99.90;;;;;;5092614;28;20024;-74
2021/12/26 07:56:09;;;;;;;11.65;6.38;;;-2.70;99.90;;;;;;5093129;28;20080;-75
2021/12/26 07:58:35;;;;;;;14.55;7.20;;;-2.70;99.90;;;;;;5096735;28;20028;-75
2021/12/26 08:01:00;;;;;;;10.43;6.30;;;-2.70;99.90;;;;;;5079075;28;20338;-75
2021/12/26 08:03:26;;;;;;;12.70;6.45;;;-2.70;99.90;;;;;;5095925;28;20120;-75
2021/12/26 08:05:51;;;;;;;12.60;6.78;;;-2.60;99.90;;;;;;5079206;28;20042;-75
2021/12/26 08:08:17;;;;;;;12.25;6.40;;;-2.60;99.90;;;;;;5096368;28;20103;-75
2021/12/26 08:10:42;;;;;;;12.20;6.68;;;-2.60;99.90;;;;;;5096401;28;20043;-75
2021/12/26 08:13:08;;;;;;;12.38;7.32;;;-2.50;99.90;;;;;;5096725;28;20043;-75
2021/12/26 08:15:34;;;;;;;11.35;6.20;;;-2.50;99.90;;;;;;5095624;28;20027;-75
2021/12/26 08:17:59;;;;;;;12.30;7.30;;;-2.40;99.90;;;;;;5095622;28;20016;-75
2021/12/26 08:20:25;;;;;;;12.38;6.82;;;-2.40;99.90;;;;;;5078656;28;20065;-75
2021/12/26 08:22:50;;;;;;;12.80;6.88;;;-2.40;99.90;;;;;;5078668;28;20016;-75
2021/12/26 08:25:17;;;;;;;12.05;6.82;;;-2.40;99.90;;;;;;5097291;28;20072;-75
2021/12/26 08:27:42;;;;;;;16.25;7.78;;;-2.30;99.90;;;;;;5095783;28;20024;-75
2021/12/26 08:30:09;;;;;;;13.27;7.93;;;-2.30;99.90;;;;;;5078789;28;20027;-75
2021/12/26 08:32:37;;;;;;;16.60;7.63;;;-2.20;99.90;;;;;;5096018;28;20035;-75
2021/12/26 08:35:04;;;;;;;16.25;7.45;;;-2.20;99.90;;;;;;5095233;28;20024;-75
2021/12/26 08:37:30;;;;;;;19.35;7.43;;;-2.10;99.90;;;;;;5078470;28;20373;-75
2021/12/26 08:39:56;;;;;;;17.67;8.50;;;-2.10;99.90;;;;;;5095546;28;20012;-76
2021/12/26 08:42:22;;;;;;;14.48;7.50;;;-2.10;99.90;;;;;;5096961;28;20407;-75
2021/12/26 08:44:48;;;;;;;13.80;7.95;;;-2.00;99.90;;;;;;5078187;28;20020;-75
2021/12/26 08:47:14;;;;;;;14.52;8.52;;;-2.00;99.90;;;;;;5095456;28;20024;-75
2021/12/26 08:49:39;;;;;;;16.23;8.27;;;-2.00;99.90;;;;;;5094956;28;20023;-75
2021/12/26 08:52:06;;;;;;;15.63;8.57;;;-2.00;99.90;;;;;;5078165;28;20024;-75
2021/12/26 08:54:33;;;;;;;15.20;8.55;;;-2.00;99.90;;;;;;5078956;28;20016;-75
2021/12/26 08:57:00;;;;;;;15.05;7.78;;;-1.90;99.90;;;;;;5094862;28;20110;-75
2021/12/26 08:59:30;;;;;;;16.13;8.38;;;-1.90;99.90;;;;;;5077970;28;20051;-75
2021/12/26 09:01:57;;;;;;;17.38;8.40;;;-1.80;99.90;;;;;;5095190;28;20044;-75
2021/12/26 09:04:22;;;;;;;15.82;8.73;;;-1.80;99.90;;;;;;5095116;28;20445;-75
2021/12/26 09:06:48;;;;;;;13.60;8.20;;;-1.80;99.90;;;;;;5094990;28;20028;-75
2021/12/26 09:09:13;;;;;;;15.02;8.00;;;-1.70;99.90;;;;;;5095869;28;20028;-75
2021/12/26 09:11:39;;;;;;;17.67;9.55;;;-1.70;99.90;;;;;;5096135;28;20023;-75
2021/12/26 09:14:04;;;;;;;16.77;8.52;;;-1.70;99.90;;;;;;5095379;28;20063;-75
2021/12/26 09:16:33;;;;;;;18.70;9.82;;;-1.70;99.90;;;;;;5094934;28;20031;-75
2021/12/26 09:19:00;;;;;;;16.20;8.75;;;-1.60;99.90;;;;;;5094772;28;20012;-75
2021/12/26 09:21:26;;;;;;;16.48;8.85;;;-1.60;99.90;;;;;;5077687;28;20024;-75
2021/12/26 09:23:51;;;;;;;13.40;8.45;;;-1.60;99.90;;;;;;5077822;28;20035;-75
2021/12/26 09:26:17;;;;;;;15.02;8.88;;;-1.50;99.90;;;;;;5095877;28;20062;-76
2021/12/26 09:28:42;;;;;;;19.83;9.05;;;-1.50;99.90;;;;;;5094273;28;20028;-76
2021/12/26 09:31:08;;;;;;;16.25;8.55;;;-1.50;99.90;;;;;;5077918;28;20027;-76
2021/12/26 09:33:33;;;;;;;15.43;8.43;;;-1.40;99.90;;;;;;5094519;28;20024;-75
2021/12/26 09:36:00;;;;;;;17.95;9.23;;;-1.30;99.90;;;;;;5077512;28;20456;-75
2021/12/26 09:38:26;;;;;;;14.48;8.70;;;-1.30;99.90;;;;;;5094794;28;20386;-75
2021/12/26 09:40:52;;;;;;;16.15;9.43;;;-1.20;99.90;;;;;;5094729;28;20023;-75
2021/12/26 09:43:17;;;;;;;16.80;9.15;;;-1.20;99.90;;;;;;5093995;28;20016;-75
2021/12/26 09:45:43;;;;;;;17.67;9.15;;;-1.20;99.90;;;;;;5095796;28;20020;-75
2021/12/26 09:48:08;;;;;;;19.95;9.18;;;-1.20;99.90;;;;;;5094565;28;20018;-75
2021/12/26 09:50:34;;;;;;;18.70;9.50;;;-1.10;99.90;;;;;;5094210;28;20016;-74
2021/12/26 09:53:00;;;;;;;16.90;9.35;;;-1.00;99.90;;;;;;5095600;28;20020;-74
2021/12/26 09:55:27;;;;;;;17.75;9.23;;;-0.90;99.90;;;;;;5093962;28;20027;-76
2021/12/26 09:57:53;;;;;;;16.77;9.70;;;-0.80;99.90;;;;;;5095263;28;20100;-75
2021/12/26 10:00:38;;;;;;;19.15;10.02;;;-0.80;99.90;;;;;;5076792;28;20052;-76
2021/12/26 10:03:18;;;;;;;17.55;9.57;;;-0.80;99.90;;;;;;5077058;28;20020;-75
2021/12/26 10:06:06;;;;;;;16.90;9.10;;;-0.80;99.90;;;;;;5093547;28;20073;-75
2021/12/26 10:08:34;;;;;;;28.35;13.02;;;-0.60;99.90;;;;;;5095276;28;20015;-75
2021/12/26 10:11:07;;;;;;;27.23;13.02;;;-0.50;99.90;;;;;;5093465;28;20016;-75
2021/12/26 10:13:40;;;;;;;25.55;12.13;;;-0.50;99.90;;;;;;5094805;28;20031;-74
2021/12/26 10:16:06;;;;;;;21.45;10.60;;;-0.50;99.90;;;;;;5095177;28;20035;-75
2021/12/26 10:18:32;;;;;;;24.73;11.38;;;-0.40;99.90;;;;;;5092902;28;20012;-75
2021/12/26 10:20:57;;;;;;;18.10;10.07;;;-0.40;99.90;;;;;;5093265;28;20020;-75
2021/12/26 10:23:26;;;;;;;19.52;10.63;;;-0.40;99.90;;;;;;5094735;28;20412;-75
2021/12/26 10:25:51;;;;;;;19.73;10.25;;;-0.40;99.90;;;;;;5093564;28;20157;-75
2021/12/26 10:28:17;;;;;;;18.98;10.60;;;-0.40;99.90;;;;;;5076255;28;20107;-75
2021/12/26 10:30:43;;;;;;;20.75;10.25;;;-0.30;99.90;;;;;;5093073;28;20099;-75
2021/12/26 10:33:09;;;;;;;20.33;11.30;;;-0.30;99.90;;;;;;5076671;28;20020;-75
2021/12/26 10:35:35;;;;;;;17.55;10.40;;;-0.20;99.90;;;;;;5093289;28;20028;-76
2021/12/26 10:38:01;;;;;;;19.52;10.95;;;-0.10;99.90;;;;;;5094766;28;20098;-75
2021/12/26 10:40:31;;;;;;;20.45;10.48;;;-0.10;99.90;;;;;;5092982;28;20029;-75
2021/12/26 10:42:59;;;;;;;18.98;11.20;;;-0.10;99.90;;;;;;5094720;28;20020;-75
2021/12/26 10:45:27;;;;;;;18.98;10.20;;;0.00;99.90;;;;;;5092878;28;20461;-75
2021/12/26 10:47:56;;;;;;;18.02;10.13;;;0.10;99.90;;;;;;5076217;28;20059;-74
2021/12/26 10:50:24;;;;;;;18.20;10.70;;;0.20;99.90;;;;;;5093158;28;20449;-74
2021/12/26 10:53:14;;;;;;;17.42;10.32;;;0.30;99.90;;;;;;5075830;28;20415;-75
2021/12/26 10:55:43;;;;;;;17.40;10.00;;;0.40;99.90;;;;;;5093858;28;20520;-75
2021/12/26 10:58:12;;;;;;;16.27;10.18;;;0.50;99.90;;;;;;5094203;28;20020;-75
2021/12/26 11:00:41;;;;;;;20.02;10.18;;;0.70;99.90;;;;;;5094417;28;20022;-75
2021/12/26 11:03:09;;;;;;;18.15;10.05;;;1.20;99.90;;;;;;5075971;28;20034;-75
2021/12/26 11:05:41;;;;;;;17.17;9.70;;;1.30;99.90;;;;;;5093838;28;20480;-75
2021/12/26 11:08:11;;;;;;;13.90;8.45;;;1.30;99.90;;;;;;5094091;28;20015;-75
2021/12/26 11:10:42;;;;;;;17.92;10.50;;;1.30;99.90;;;;;;5094620;28;20023;-75
2021/12/26 11:13:21;;;;;;;16.27;9.82;;;1.20;99.90;;;;;;5094044;28;20094;-75
2021/12/26 11:15:47;;;;;;;18.08;10.93;;;1.20;99.90;;;;;;5092860;28;20475;-75
2021/12/26 11:18:15;;;;;;;18.35;10.75;;;1.20;99.90;;;;;;5093114;28;20065;-75
2021/12/26 11:20:45;;;;;;;20.38;10.68;;;1.30;99.90;;;;;;5093214;28;20067;-75
2021/12/26 11:23:14;;;;;;;16.52;10.43;;;1.00;99.90;;;;;;5075950;28;20449;-75
2021/12/26 11:25:45;;;;;;;17.27;10.52;;;1.10;99.90;;;;;;5092980;28;20024;-75
2021/12/26 11:28:13;;;;;;;19.73;10.45;;;1.20;99.90;;;;;;5094181;28;20050;-75
2021/12/26 11:30:41;;;;;;;19.40;11.02;;;1.20;99.90;;;;;;5094307;28;20020;-75
2021/12/26 11:33:08;;;;;;;19.95;10.82;;;1.20;99.90;;;;;;5096873;28;20024;-75
2021/12/26 11:35:35;;;;;;;18.55;10.23;;;1.10;99.90;;;;;;5096404;28;20023;-75
2021/12/26 11:38:02;;;;;;;19.88;10.70;;;1.20;99.90;;;;;;5079652;28;20024;-75
2021/12/26 11:40:29;;;;;;;16.85;10.32;;;1.30;99.90;;;;;;5096755;28;20008;-74
2021/12/26 11:45:45;;;;;;;18.73;10.57;;;1.40;99.90;;;;;;5071696;28;20383;-72
2021/12/26 11:48:28;;;;;;;19.63;11.25;;;1.50;99.90;;;;;;5071375;28;20033;-72
2021/12/26 11:51:15;;;;;;;19.20;10.90;;;1.50;99.90;;;;;;5069986;28;20017;-72
2021/12/26 11:54:21;;;;;;;20.98;10.63;;;1.40;99.90;;;;;;5069856;28;20029;-72
2021/12/26 12:00:05;;;;;;;19.20;11.38;;;1.50;99.90;;;;;;5112257;27;20294;-72
2021/12/26 12:02:50;;;;;;;19.50;11.13;;;1.60;99.90;;;;;;5096096;28;20388;-72
2021/12/26 12:05:24;;;;;;;22.02;11.73;;;1.50;99.90;;;;;;5111654;28;20106;-72
2021/12/26 12:10:57;;;;;;;19.27;11.35;;;1.40;99.90;;;;;;5112282;27;20283;-72
2021/12/26 12:13:44;;;;;;;19.70;11.50;;;1.40;99.90;;;;;;5071702;28;20888;-72
2021/12/26 12:16:13;;;;;;;18.83;11.18;;;1.40;99.90;;;;;;5071418;28;20099;-72
2021/12/26 12:18:54;;;;;;;20.83;11.80;;;1.40;99.90;;;;;;5069904;28;20441;-72
2021/12/26 12:21:44;;;;;;;20.75;12.30;;;1.40;99.90;;;;;;5071294;28;20343;-73
2021/12/26 12:24:14;;;;;;;21.40;12.18;;;1.50;99.90;;;;;;5071259;28;20021;-71
2021/12/26 12:27:00;;;;;;;21.88;12.30;;;1.60;99.90;;;;;;5070169;28;20032;-70
2021/12/26 12:35:05;;;;;;;18.02;10.73;;;1.60;99.90;;;;;;5112254;27;20433;-73
2021/12/26 12:37:40;;;;;;;28.70;12.30;;;1.70;99.90;;;;;;5111900;28;20110;-73
2021/12/26 12:43:07;;;;;;;21.08;11.23;;;1.50;99.90;;;;;;5071648;28;20357;-72
2021/12/26 12:45:56;;;;;;;21.63;12.10;;;1.40;99.90;;;;;;5070831;28;20027;-73
2021/12/26 12:48:30;;;;;;;18.92;11.27;;;1.40;99.90;;;;;;5070738;28;20071;-73
2021/12/26 12:50:59;;;;;;;24.45;12.45;;;1.40;99.90;;;;;;5070992;28;20032;-72
2021/12/26 12:53:56;;;;;;;23.35;12.50;;;1.50;99.90;;;;;;5053147;28;20075;-72
2021/12/26 12:56:36;;;;;;;22.13;11.95;;;1.60;99.90;;;;;;5071206;28;20021;-72
2021/12/26 12:59:25;;;;;;;18.77;11.38;;;1.60;99.90;;;;;;5069356;28;20021;-72
2021/12/26 13:01:54;;;;;;;20.17;11.40;;;1.60;99.90;;;;;;5069138;28;20025;-72
2021/12/26 13:04:27;;;;;;;21.38;11.45;;;1.50;99.90;;;;;;5052878;28;20138;-72